sensor_id;sensor_type;location;lat;lon;timestamp;P1;durP1;ratioP1;P2;durP2;ratioP2
76196;SDS011;64974;53.144;17.962;2023-05-07T00:00:46;18.13;;;8.95;;
76196;SDS011;64974;53.144;17.962;2023-05-07T00:03:11;17.75;;;8.27;;
76196;SDS011;64974;53.144;17.962;2023-05-07T00:05:38;16.60;;;8.60;;
76196;SDS011;64974;53.144;17.962;2023-05-07T00:08:04;17.60;;;10.40;;
76196;SDS011;64974;53.144;17.962;2023-05-07T00:10:29;16.23;;;7.97;;
76196;SDS011;64974;53.144;17.962;2023-05-07T00:12:54;17.40;;;8.50;;
76196;SDS011;64974;53.144;17.962;2023-05-07T00:15:20;16.80;;;8.45;;
76196;SDS011;64974;53.144;17.962;2023-05-07T00:17:45;15.50;;;9.80;;
76196;SDS011;64974;53.144;17.962;2023-05-07T00:20:11;14.07;;;7.60;;
76196;SDS011;64974;53.144;17.962;2023-05-07T00:22:36;15.68;;;9.32;;
76196;SDS011;64974;53.144;17.962;2023-05-07T00:25:02;17.27;;;9.45;;
76196;SDS011;64974;53.144;17.962;2023-05-07T00:27:28;14.30;;;7.82;;
76196;SDS011;64974;53.144;17.962;2023-05-07T00:29:53;15.85;;;9.00;;
76196;SDS011;64974;53.144;17.962;2023-05-07T00:32:18;15.75;;;9.23;;
76196;SDS011;64974;53.144;17.962;2023-05-07T00:34:44;13.18;;;8.00;;
76196;SDS011;64974;53.144;17.962;2023-05-07T00:37:09;14.20;;;7.50;;
76196;SDS011;64974;53.144;17.962;2023-05-07T00:39:35;13.90;;;8.90;;
76196;SDS011;64974;53.144;17.962;2023-05-07T00:42:00;15.07;;;8.63;;
76196;SDS011;64974;53.144;17.962;2023-05-07T00:44:26;15.82;;;9.07;;
76196;SDS011;64974;53.144;17.962;2023-05-07T00:46:51;15.98;;;8.57;;
76196;SDS011;64974;53.144;17.962;2023-05-07T00:49:17;13.70;;;7.68;;
76196;SDS011;64974;53.144;17.962;2023-05-07T00:51:43;13.80;;;8.55;;
76196;SDS011;64974;53.144;17.962;2023-05-07T00:54:09;14.43;;;8.43;;
76196;SDS011;64974;53.144;17.962;2023-05-07T00:56:34;14.30;;;8.00;;
76196;SDS011;64974;53.144;17.962;2023-05-07T00:59:01;16.05;;;8.57;;
76196;SDS011;64974;53.144;17.962;2023-05-07T01:01:27;16.77;;;8.23;;
76196;SDS011;64974;53.144;17.962;2023-05-07T01:03:53;17.75;;;8.55;;
76196;SDS011;64974;53.144;17.962;2023-05-07T01:06:18;16.58;;;9.20;;
76196;SDS011;64974;53.144;17.962;2023-05-07T01:08:44;19.48;;;9.48;;
76196;SDS011;64974;53.144;17.962;2023-05-07T01:11:09;17.20;;;9.10;;
76196;SDS011;64974;53.144;17.962;2023-05-07T01:13:36;16.77;;;8.82;;
76196;SDS011;64974;53.144;17.962;2023-05-07T01:16:02;15.55;;;9.63;;
76196;SDS011;64974;53.144;17.962;2023-05-07T01:18:28;15.68;;;9.18;;
76196;SDS011;64974;53.144;17.962;2023-05-07T01:20:55;17.15;;;9.70;;
76196;SDS011;64974;53.144;17.962;2023-05-07T01:23:23;15.95;;;8.95;;
76196;SDS011;64974;53.144;17.962;2023-05-07T01:25:52;15.82;;;8.60;;
76196;SDS011;64974;53.144;17.962;2023-05-07T01:28:18;16.27;;;8.98;;
76196;SDS011;64974;53.144;17.962;2023-05-07T01:30:44;17.50;;;9.73;;
76196;SDS011;64974;53.144;17.962;2023-05-07T01:33:12;25.40;;;11.70;;
76196;SDS011;64974;53.144;17.962;2023-05-07T01:35:39;31.65;;;12.65;;
76196;SDS011;64974;53.144;17.962;2023-05-07T01:38:06;27.33;;;12.23;;
76196;SDS011;64974;53.144;17.962;2023-05-07T01:40:32;24.45;;;11.02;;
76196;SDS011;64974;53.144;17.962;2023-05-07T01:42:57;19.10;;;9.95;;
76196;SDS011;64974;53.144;17.962;2023-05-07T01:45:23;23.48;;;11.25;;
76196;SDS011;64974;53.144;17.962;2023-05-07T01:47:49;20.35;;;10.70;;
76196;SDS011;64974;53.144;17.962;2023-05-07T01:50:15;19.08;;;10.95;;
76196;SDS011;64974;53.144;17.962;2023-05-07T01:52:42;21.83;;;9.65;;
76196;SDS011;64974;53.144;17.962;2023-05-07T01:55:07;18.25;;;10.93;;
76196;SDS011;64974;53.144;17.962;2023-05-07T01:57:33;18.80;;;9.32;;
76196;SDS011;64974;53.144;17.962;2023-05-07T01:59:58;14.70;;;8.00;;
76196;SDS011;64974;53.144;17.962;2023-05-07T02:02:23;17.65;;;8.23;;
76196;SDS011;64974;53.144;17.962;2023-05-07T02:04:49;20.80;;;9.07;;
76196;SDS011;64974;53.144;17.962;2023-05-07T02:07:14;18.30;;;8.85;;
76196;SDS011;64974;53.144;17.962;2023-05-07T02:09:39;18.23;;;8.43;;
76196;SDS011;64974;53.144;17.962;2023-05-07T02:12:05;15.57;;;8.30;;
76196;SDS011;64974;53.144;17.962;2023-05-07T02:14:30;16.20;;;8.85;;
76196;SDS011;64974;53.144;17.962;2023-05-07T02:16:55;14.10;;;7.57;;
76196;SDS011;64974;53.144;17.962;2023-05-07T02:19:21;14.88;;;8.20;;
76196;SDS011;64974;53.144;17.962;2023-05-07T02:21:46;15.38;;;8.57;;
76196;SDS011;64974;53.144;17.962;2023-05-07T02:24:12;14.93;;;7.43;;
76196;SDS011;64974;53.144;17.962;2023-05-07T02:26:37;16.17;;;9.00;;
76196;SDS011;64974;53.144;17.962;2023-05-07T02:29:03;14.73;;;6.70;;
76196;SDS011;64974;53.144;17.962;2023-05-07T02:31:28;16.17;;;8.25;;
76196;SDS011;64974;53.144;17.962;2023-05-07T02:33:53;14.02;;;7.65;;
76196;SDS011;64974;53.144;17.962;2023-05-07T02:36:19;12.83;;;7.93;;
76196;SDS011;64974;53.144;17.962;2023-05-07T02:38:44;13.88;;;7.40;;
76196;SDS011;64974;53.144;17.962;2023-05-07T02:41:09;13.87;;;7.13;;
76196;SDS011;64974;53.144;17.962;2023-05-07T02:43:36;14.93;;;7.70;;
76196;SDS011;64974;53.144;17.962;2023-05-07T02:46:02;15.48;;;7.85;;
76196;SDS011;64974;53.144;17.962;2023-05-07T02:48:27;11.27;;;7.25;;
76196;SDS011;64974;53.144;17.962;2023-05-07T02:50:53;19.70;;;7.90;;
76196;SDS011;64974;53.144;17.962;2023-05-07T02:53:18;14.53;;;7.10;;
76196;SDS011;64974;53.144;17.962;2023-05-07T02:55:43;11.40;;;6.30;;
76196;SDS011;64974;53.144;17.962;2023-05-07T02:58:09;12.43;;;7.57;;
76196;SDS011;64974;53.144;17.962;2023-05-07T03:00:34;14.63;;;8.13;;
76196;SDS011;64974;53.144;17.962;2023-05-07T03:03:00;17.77;;;10.30;;
76196;SDS011;64974;53.144;17.962;2023-05-07T03:05:25;24.10;;;12.77;;
76196;SDS011;64974;53.144;17.962;2023-05-07T03:07:50;22.83;;;14.07;;
76196;SDS011;64974;53.144;17.962;2023-05-07T03:10:15;24.58;;;14.43;;
76196;SDS011;64974;53.144;17.962;2023-05-07T03:12:41;24.85;;;14.10;;
76196;SDS011;64974;53.144;17.962;2023-05-07T03:15:06;20.33;;;11.57;;
76196;SDS011;64974;53.144;17.962;2023-05-07T03:17:33;17.58;;;10.85;;
76196;SDS011;64974;53.144;17.962;2023-05-07T03:19:58;20.77;;;12.50;;
76196;SDS011;64974;53.144;17.962;2023-05-07T03:22:23;25.23;;;14.77;;
76196;SDS011;64974;53.144;17.962;2023-05-07T03:24:49;28.20;;;15.10;;
76196;SDS011;64974;53.144;17.962;2023-05-07T03:27:14;27.57;;;16.97;;
76196;SDS011;64974;53.144;17.962;2023-05-07T03:29:39;32.05;;;17.58;;
76196;SDS011;64974;53.144;17.962;2023-05-07T03:32:05;33.70;;;18.65;;
76196;SDS011;64974;53.144;17.962;2023-05-07T03:34:30;28.85;;;18.02;;
76196;SDS011;64974;53.144;17.962;2023-05-07T03:36:56;29.80;;;18.15;;
76196;SDS011;64974;53.144;17.962;2023-05-07T03:39:21;33.90;;;19.33;;
76196;SDS011;64974;53.144;17.962;2023-05-07T03:41:46;35.60;;;20.00;;
76196;SDS011;64974;53.144;17.962;2023-05-07T03:44:12;33.97;;;18.33;;
76196;SDS011;64974;53.144;17.962;2023-05-07T03:46:37;33.67;;;19.43;;
76196;SDS011;64974;53.144;17.962;2023-05-07T03:49:03;40.50;;;22.02;;
76196;SDS011;64974;53.144;17.962;2023-05-07T03:51:28;45.55;;;22.70;;
76196;SDS011;64974;53.144;17.962;2023-05-07T03:53:53;49.67;;;25.57;;
76196;SDS011;64974;53.144;17.962;2023-05-07T03:56:19;54.78;;;26.05;;
76196;SDS011;64974;53.144;17.962;2023-05-07T04:01:12;56.97;;;23.73;;
76196;SDS011;64974;53.144;17.962;2023-05-07T04:03:37;45.60;;;21.13;;
76196;SDS011;64974;53.144;17.962;2023-05-07T04:06:02;43.33;;;20.70;;
76196;SDS011;64974;53.144;17.962;2023-05-07T04:08:27;40.33;;;19.83;;
76196;SDS011;64974;53.144;17.962;2023-05-07T04:10:56;37.60;;;18.47;;
76196;SDS011;64974;53.144;17.962;2023-05-07T04:13:22;39.53;;;17.38;;
76196;SDS011;64974;53.144;17.962;2023-05-07T04:15:48;36.92;;;17.10;;
76196;SDS011;64974;53.144;17.962;2023-05-07T04:18:14;31.25;;;16.42;;
76196;SDS011;64974;53.144;17.962;2023-05-07T04:20:39;30.95;;;14.52;;
76196;SDS011;64974;53.144;17.962;2023-05-07T04:23:05;25.80;;;14.32;;
76196;SDS011;64974;53.144;17.962;2023-05-07T04:25:30;29.02;;;13.32;;
76196;SDS011;64974;53.144;17.962;2023-05-07T04:27:56;28.52;;;14.80;;
76196;SDS011;64974;53.144;17.962;2023-05-07T04:30:21;23.50;;;12.88;;
76196;SDS011;64974;53.144;17.962;2023-05-07T04:32:46;24.53;;;12.73;;
76196;SDS011;64974;53.144;17.962;2023-05-07T04:35:13;24.30;;;11.75;;
76196;SDS011;64974;53.144;17.962;2023-05-07T04:37:38;24.58;;;11.43;;
76196;SDS011;64974;53.144;17.962;2023-05-07T04:40:03;24.08;;;13.10;;
76196;SDS011;64974;53.144;17.962;2023-05-07T04:42:29;19.80;;;10.13;;
76196;SDS011;64974;53.144;17.962;2023-05-07T04:44:54;20.67;;;11.75;;
76196;SDS011;64974;53.144;17.962;2023-05-07T04:47:20;17.77;;;11.03;;
76196;SDS011;64974;53.144;17.962;2023-05-07T04:49:45;21.33;;;11.57;;
76196;SDS011;64974;53.144;17.962;2023-05-07T04:52:11;20.10;;;11.52;;
76196;SDS011;64974;53.144;17.962;2023-05-07T04:54:36;21.40;;;11.47;;
76196;SDS011;64974;53.144;17.962;2023-05-07T04:57:03;18.50;;;11.00;;
76196;SDS011;64974;53.144;17.962;2023-05-07T04:59:29;18.95;;;11.52;;
76196;SDS011;64974;53.144;17.962;2023-05-07T05:01:54;21.08;;;11.40;;
76196;SDS011;64974;53.144;17.962;2023-05-07T05:04:19;19.27;;;10.97;;
76196;SDS011;64974;53.144;17.962;2023-05-07T05:06:45;22.47;;;11.77;;
76196;SDS011;64974;53.144;17.962;2023-05-07T05:09:10;20.02;;;11.38;;
76196;SDS011;64974;53.144;17.962;2023-05-07T05:11:36;22.25;;;10.65;;
76196;SDS011;64974;53.144;17.962;2023-05-07T05:14:01;16.02;;;9.52;;
76196;SDS011;64974;53.144;17.962;2023-05-07T05:16:26;19.50;;;10.50;;
76196;SDS011;64974;53.144;17.962;2023-05-07T05:18:52;20.43;;;10.03;;
76196;SDS011;64974;53.144;17.962;2023-05-07T05:21:19;14.40;;;8.57;;
76196;SDS011;64974;53.144;17.962;2023-05-07T05:23:44;16.98;;;9.80;;
76196;SDS011;64974;53.144;17.962;2023-05-07T05:26:10;16.67;;;9.02;;
76196;SDS011;64974;53.144;17.962;2023-05-07T05:28:35;18.88;;;10.95;;
76196;SDS011;64974;53.144;17.962;2023-05-07T05:31:01;19.67;;;9.65;;
76196;SDS011;64974;53.144;17.962;2023-05-07T05:33:26;19.55;;;10.57;;
76196;SDS011;64974;53.144;17.962;2023-05-07T05:35:53;22.27;;;10.90;;
76196;SDS011;64974;53.144;17.962;2023-05-07T05:38:19;19.20;;;11.43;;
76196;SDS011;64974;53.144;17.962;2023-05-07T05:40:44;17.70;;;10.47;;
76196;SDS011;64974;53.144;17.962;2023-05-07T05:43:09;20.35;;;9.70;;
76196;SDS011;64974;53.144;17.962;2023-05-07T05:45:35;18.37;;;10.10;;
76196;SDS011;64974;53.144;17.962;2023-05-07T05:48:00;18.02;;;10.68;;
76196;SDS011;64974;53.144;17.962;2023-05-07T05:50:25;16.65;;;9.93;;
76196;SDS011;64974;53.144;17.962;2023-05-07T05:52:51;16.98;;;9.95;;
76196;SDS011;64974;53.144;17.962;2023-05-07T05:55:16;19.30;;;9.30;;
76196;SDS011;64974;53.144;17.962;2023-05-07T05:57:41;17.33;;;10.40;;
76196;SDS011;64974;53.144;17.962;2023-05-07T06:00:07;14.88;;;8.35;;
76196;SDS011;64974;53.144;17.962;2023-05-07T06:02:34;14.27;;;8.63;;
76196;SDS011;64974;53.144;17.962;2023-05-07T06:07:25;14.93;;;7.93;;
76196;SDS011;64974;53.144;17.962;2023-05-07T06:09:50;14.82;;;9.27;;
76196;SDS011;64974;53.144;17.962;2023-05-07T06:12:15;14.52;;;9.00;;
76196;SDS011;64974;53.144;17.962;2023-05-07T06:17:10;11.77;;;6.82;;
76196;SDS011;64974;53.144;17.962;2023-05-07T06:19:35;14.80;;;7.83;;
76196;SDS011;64974;53.144;17.962;2023-05-07T06:22:00;16.33;;;8.07;;
76196;SDS011;64974;53.144;17.962;2023-05-07T06:24:26;10.95;;;6.95;;
76196;SDS011;64974;53.144;17.962;2023-05-07T06:26:52;12.57;;;7.53;;
76196;SDS011;64974;53.144;17.962;2023-05-07T06:29:17;12.65;;;6.85;;
76196;SDS011;64974;53.144;17.962;2023-05-07T06:31:43;15.68;;;6.65;;
76196;SDS011;64974;53.144;17.962;2023-05-07T06:34:08;11.40;;;6.40;;
76196;SDS011;64974;53.144;17.962;2023-05-07T06:36:33;10.83;;;6.90;;
76196;SDS011;64974;53.144;17.962;2023-05-07T06:38:59;10.85;;;6.28;;
76196;SDS011;64974;53.144;17.962;2023-05-07T06:41:25;9.47;;;5.17;;
76196;SDS011;64974;53.144;17.962;2023-05-07T06:43:50;11.93;;;6.28;;
76196;SDS011;64974;53.144;17.962;2023-05-07T06:46:16;12.32;;;5.47;;
76196;SDS011;64974;53.144;17.962;2023-05-07T06:48:41;10.23;;;5.47;;
76196;SDS011;64974;53.144;17.962;2023-05-07T06:51:06;12.00;;;6.00;;
76196;SDS011;64974;53.144;17.962;2023-05-07T06:53:32;9.90;;;5.63;;
76196;SDS011;64974;53.144;17.962;2023-05-07T06:55:57;11.35;;;6.03;;
76196;SDS011;64974;53.144;17.962;2023-05-07T06:58:22;9.52;;;5.72;;
76196;SDS011;64974;53.144;17.962;2023-05-07T07:00:48;10.15;;;6.15;;
76196;SDS011;64974;53.144;17.962;2023-05-07T07:03:13;12.48;;;6.85;;
76196;SDS011;64974;53.144;17.962;2023-05-07T07:05:40;10.07;;;5.75;;
76196;SDS011;64974;53.144;17.962;2023-05-07T07:08:06;9.20;;;5.15;;
76196;SDS011;64974;53.144;17.962;2023-05-07T07:10:31;9.20;;;5.78;;
76196;SDS011;64974;53.144;17.962;2023-05-07T07:12:56;9.38;;;5.47;;
76196;SDS011;64974;53.144;17.962;2023-05-07T07:15:22;9.15;;;5.65;;
76196;SDS011;64974;53.144;17.962;2023-05-07T07:17:49;11.15;;;6.05;;
76196;SDS011;64974;53.144;17.962;2023-05-07T07:20:15;9.00;;;5.10;;
76196;SDS011;64974;53.144;17.962;2023-05-07T07:22:41;9.80;;;5.25;;
76196;SDS011;64974;53.144;17.962;2023-05-07T07:25:06;7.75;;;4.63;;
76196;SDS011;64974;53.144;17.962;2023-05-07T07:27:32;8.75;;;4.78;;
76196;SDS011;64974;53.144;17.962;2023-05-07T07:29:57;6.83;;;4.73;;
76196;SDS011;64974;53.144;17.962;2023-05-07T07:32:22;10.32;;;4.88;;
76196;SDS011;64974;53.144;17.962;2023-05-07T07:34:48;9.73;;;4.17;;
76196;SDS011;64974;53.144;17.962;2023-05-07T07:37:13;8.88;;;5.50;;
76196;SDS011;64974;53.144;17.962;2023-05-07T07:39:39;7.13;;;4.45;;
76196;SDS011;64974;53.144;17.962;2023-05-07T07:42:04;7.60;;;3.97;;
76196;SDS011;64974;53.144;17.962;2023-05-07T07:44:30;10.80;;;4.13;;
76196;SDS011;64974;53.144;17.962;2023-05-07T07:46:55;6.38;;;3.70;;
76196;SDS011;64974;53.144;17.962;2023-05-07T07:49:20;7.30;;;4.15;;
76196;SDS011;64974;53.144;17.962;2023-05-07T07:51:46;7.97;;;4.23;;
76196;SDS011;64974;53.144;17.962;2023-05-07T07:54:11;7.63;;;4.30;;
76196;SDS011;64974;53.144;17.962;2023-05-07T07:56:36;8.90;;;3.87;;
76196;SDS011;64974;53.144;17.962;2023-05-07T07:59:02;9.88;;;4.35;;
76196;SDS011;64974;53.144;17.962;2023-05-07T08:01:30;8.32;;;3.95;;
76196;SDS011;64974;53.144;17.962;2023-05-07T08:03:56;5.28;;;2.95;;
76196;SDS011;64974;53.144;17.962;2023-05-07T08:06:23;7.95;;;3.53;;
76196;SDS011;64974;53.144;17.962;2023-05-07T08:08:48;7.43;;;2.87;;
76196;SDS011;64974;53.144;17.962;2023-05-07T08:11:14;4.63;;;2.20;;
76196;SDS011;64974;53.144;17.962;2023-05-07T08:13:39;5.70;;;2.88;;
76196;SDS011;64974;53.144;17.962;2023-05-07T08:16:05;6.63;;;3.20;;
76196;SDS011;64974;53.144;17.962;2023-05-07T08:18:30;6.05;;;2.67;;
76196;SDS011;64974;53.144;17.962;2023-05-07T08:20:55;5.88;;;2.95;;
76196;SDS011;64974;53.144;17.962;2023-05-07T08:23:21;5.22;;;2.40;;
76196;SDS011;64974;53.144;17.962;2023-05-07T08:25:47;4.95;;;2.92;;
76196;SDS011;64974;53.144;17.962;2023-05-07T08:28:12;4.40;;;2.15;;
76196;SDS011;64974;53.144;17.962;2023-05-07T08:30:38;4.30;;;2.40;;
76196;SDS011;64974;53.144;17.962;2023-05-07T08:33:03;4.07;;;2.30;;
76196;SDS011;64974;53.144;17.962;2023-05-07T08:35:28;4.90;;;2.10;;
76196;SDS011;64974;53.144;17.962;2023-05-07T08:37:54;5.28;;;2.60;;
76196;SDS011;64974;53.144;17.962;2023-05-07T08:40:20;4.80;;;2.50;;
76196;SDS011;64974;53.144;17.962;2023-05-07T08:42:48;4.78;;;2.30;;
76196;SDS011;64974;53.144;17.962;2023-05-07T08:45:15;4.28;;;2.20;;
76196;SDS011;64974;53.144;17.962;2023-05-07T08:47:44;5.13;;;2.47;;
76196;SDS011;64974;53.144;17.962;2023-05-07T08:50:12;4.90;;;2.28;;
76196;SDS011;64974;53.144;17.962;2023-05-07T08:52:38;4.70;;;2.28;;
76196;SDS011;64974;53.144;17.962;2023-05-07T08:55:04;4.18;;;2.20;;
76196;SDS011;64974;53.144;17.962;2023-05-07T08:57:30;3.85;;;1.90;;
76196;SDS011;64974;53.144;17.962;2023-05-07T08:59:56;4.65;;;2.67;;
76196;SDS011;64974;53.144;17.962;2023-05-07T09:02:21;5.55;;;2.08;;
76196;SDS011;64974;53.144;17.962;2023-05-07T09:04:46;5.88;;;2.13;;
76196;SDS011;64974;53.144;17.962;2023-05-07T09:07:12;3.53;;;1.60;;
76196;SDS011;64974;53.144;17.962;2023-05-07T09:09:37;4.60;;;2.10;;
76196;SDS011;64974;53.144;17.962;2023-05-07T09:12:02;6.00;;;2.33;;
76196;SDS011;64974;53.144;17.962;2023-05-07T09:14:28;4.43;;;2.15;;
76196;SDS011;64974;53.144;17.962;2023-05-07T09:16:55;4.60;;;2.28;;
76196;SDS011;64974;53.144;17.962;2023-05-07T09:19:24;5.75;;;2.22;;
76196;SDS011;64974;53.144;17.962;2023-05-07T09:21:57;3.47;;;1.77;;
76196;SDS011;64974;53.144;17.962;2023-05-07T09:24:26;3.13;;;1.80;;
76196;SDS011;64974;53.144;17.962;2023-05-07T09:26:53;3.88;;;1.73;;
76196;SDS011;64974;53.144;17.962;2023-05-07T09:29:20;4.35;;;2.67;;
76196;SDS011;64974;53.144;17.962;2023-05-07T09:31:45;3.75;;;2.15;;
76196;SDS011;64974;53.144;17.962;2023-05-07T09:34:11;3.17;;;1.77;;
76196;SDS011;64974;53.144;17.962;2023-05-07T09:36:36;5.73;;;1.90;;
76196;SDS011;64974;53.144;17.962;2023-05-07T09:39:01;3.95;;;1.85;;
76196;SDS011;64974;53.144;17.962;2023-05-07T09:41:27;3.90;;;2.08;;
76196;SDS011;64974;53.144;17.962;2023-05-07T09:43:55;4.15;;;1.98;;
76196;SDS011;64974;53.144;17.962;2023-05-07T09:46:22;6.45;;;2.17;;
76196;SDS011;64974;53.144;17.962;2023-05-07T09:48:50;3.75;;;1.95;;
76196;SDS011;64974;53.144;17.962;2023-05-07T09:53:56;3.72;;;2.03;;
76196;SDS011;64974;53.144;17.962;2023-05-07T09:56:22;4.03;;;2.10;;
76196;SDS011;64974;53.144;17.962;2023-05-07T09:58:49;4.28;;;2.17;;
76196;SDS011;64974;53.144;17.962;2023-05-07T10:01:16;4.20;;;2.45;;
76196;SDS011;64974;53.144;17.962;2023-05-07T10:03:42;4.18;;;2.17;;
76196;SDS011;64974;53.144;17.962;2023-05-07T10:06:09;4.75;;;2.13;;
76196;SDS011;64974;53.144;17.962;2023-05-07T10:08:35;4.35;;;2.22;;
76196;SDS011;64974;53.144;17.962;2023-05-07T10:11:02;4.93;;;2.67;;
76196;SDS011;64974;53.144;17.962;2023-05-07T10:13:29;7.70;;;2.63;;
76196;SDS011;64974;53.144;17.962;2023-05-07T10:15:55;5.78;;;2.28;;
76196;SDS011;64974;53.144;17.962;2023-05-07T10:20:48;5.38;;;2.35;;
76196;SDS011;64974;53.144;17.962;2023-05-07T10:23:17;4.20;;;2.22;;
76196;SDS011;64974;53.144;17.962;2023-05-07T10:25:46;4.90;;;2.58;;
76196;SDS011;64974;53.144;17.962;2023-05-07T10:28:11;4.55;;;2.45;;
76196;SDS011;64974;53.144;17.962;2023-05-07T10:33:29;3.92;;;2.33;;
76196;SDS011;64974;53.144;17.962;2023-05-07T10:38:21;4.57;;;2.30;;
76196;SDS011;64974;53.144;17.962;2023-05-07T10:40:46;6.82;;;2.95;;
76196;SDS011;64974;53.144;17.962;2023-05-07T10:43:12;4.10;;;2.38;;
76196;SDS011;64974;53.144;17.962;2023-05-07T10:45:37;5.60;;;2.90;;
76196;SDS011;64974;53.144;17.962;2023-05-07T10:50:35;6.05;;;2.50;;
76196;SDS011;64974;53.144;17.962;2023-05-07T10:55:41;6.93;;;3.03;;
76196;SDS011;64974;53.144;17.962;2023-05-07T11:00:48;4.85;;;2.80;;
76196;SDS011;64974;53.144;17.962;2023-05-07T11:03:13;5.53;;;2.55;;
76196;SDS011;64974;53.144;17.962;2023-05-07T11:05:40;4.43;;;2.33;;
76196;SDS011;64974;53.144;17.962;2023-05-07T11:08:06;5.15;;;2.78;;
76196;SDS011;64974;53.144;17.962;2023-05-07T11:10:48;4.22;;;2.78;;
76196;SDS011;64974;53.144;17.962;2023-05-07T11:13:18;5.90;;;2.95;;
76196;SDS011;64974;53.144;17.962;2023-05-07T11:15:44;6.40;;;2.60;;
76196;SDS011;64974;53.144;17.962;2023-05-07T11:18:11;5.78;;;2.90;;
76196;SDS011;64974;53.144;17.962;2023-05-07T11:26:09;11.10;;;6.88;;
76196;SDS011;64974;53.144;17.962;2023-05-07T11:28:36;5.22;;;3.03;;
76196;SDS011;64974;53.144;17.962;2023-05-07T11:31:03;6.28;;;3.70;;
76196;SDS011;64974;53.144;17.962;2023-05-07T11:33:29;8.75;;;5.82;;
76196;SDS011;64974;53.144;17.962;2023-05-07T11:35:55;5.65;;;2.58;;
76196;SDS011;64974;53.144;17.962;2023-05-07T11:40:55;7.07;;;3.40;;
76196;SDS011;64974;53.144;17.962;2023-05-07T11:43:21;5.43;;;2.70;;
76196;SDS011;64974;53.144;17.962;2023-05-07T11:48:12;6.05;;;2.70;;
76196;SDS011;64974;53.144;17.962;2023-05-07T11:53:16;5.43;;;2.10;;
76196;SDS011;64974;53.144;17.962;2023-05-07T11:58:08;5.90;;;2.30;;
76196;SDS011;64974;53.144;17.962;2023-05-07T12:00:35;4.07;;;1.88;;
76196;SDS011;64974;53.144;17.962;2023-05-07T12:05:30;4.82;;;2.50;;
76196;SDS011;64974;53.144;17.962;2023-05-07T12:10:21;5.20;;;2.35;;
76196;SDS011;64974;53.144;17.962;2023-05-07T12:15:15;5.67;;;2.23;;
76196;SDS011;64974;53.144;17.962;2023-05-07T12:17:40;4.68;;;2.50;;
76196;SDS011;64974;53.144;17.962;2023-05-07T12:22:32;5.00;;;2.50;;
76196;SDS011;64974;53.144;17.962;2023-05-07T12:27:23;4.40;;;2.13;;
76196;SDS011;64974;53.144;17.962;2023-05-07T12:32:15;4.82;;;2.72;;
76196;SDS011;64974;53.144;17.962;2023-05-07T12:34:44;6.43;;;3.50;;
76196;SDS011;64974;53.144;17.962;2023-05-07T12:39:35;9.93;;;5.45;;
76196;SDS011;64974;53.144;17.962;2023-05-07T12:44:30;3.47;;;1.90;;
76196;SDS011;64974;53.144;17.962;2023-05-07T12:46:57;15.02;;;7.82;;
76196;SDS011;64974;53.144;17.962;2023-05-07T12:51:48;5.20;;;2.70;;
76196;SDS011;64974;53.144;17.962;2023-05-07T12:54:14;5.13;;;2.75;;
76196;SDS011;64974;53.144;17.962;2023-05-07T12:56:59;5.30;;;2.97;;
76196;SDS011;64974;53.144;17.962;2023-05-07T12:59:59;3.78;;;2.05;;
76196;SDS011;64974;53.144;17.962;2023-05-07T13:02:17;3.90;;;2.22;;
76196;SDS011;64974;53.144;17.962;2023-05-07T13:07:07;4.83;;;2.20;;
76196;SDS011;64974;53.144;17.962;2023-05-07T13:09:33;3.42;;;2.08;;
76196;SDS011;64974;53.144;17.962;2023-05-07T13:11:58;4.35;;;2.75;;
76196;SDS011;64974;53.144;17.962;2023-05-07T13:14:26;4.15;;;2.03;;
76196;SDS011;64974;53.144;17.962;2023-05-07T13:16:51;5.45;;;2.38;;
76196;SDS011;64974;53.144;17.962;2023-05-07T13:19:17;4.95;;;2.30;;
76196;SDS011;64974;53.144;17.962;2023-05-07T13:21:42;5.97;;;3.03;;
76196;SDS011;64974;53.144;17.962;2023-05-07T13:24:08;6.70;;;2.50;;
76196;SDS011;64974;53.144;17.962;2023-05-07T13:26:33;4.93;;;2.30;;
76196;SDS011;64974;53.144;17.962;2023-05-07T13:28:58;4.18;;;2.35;;
76196;SDS011;64974;53.144;17.962;2023-05-07T13:31:24;4.50;;;2.55;;
76196;SDS011;64974;53.144;17.962;2023-05-07T13:33:49;7.65;;;2.50;;
76196;SDS011;64974;53.144;17.962;2023-05-07T13:36:15;6.93;;;3.50;;
76196;SDS011;64974;53.144;17.962;2023-05-07T13:38:40;6.13;;;2.30;;
76196;SDS011;64974;53.144;17.962;2023-05-07T13:41:05;6.55;;;3.05;;
76196;SDS011;64974;53.144;17.962;2023-05-07T13:43:31;7.32;;;2.85;;
76196;SDS011;64974;53.144;17.962;2023-05-07T13:45:58;4.55;;;2.17;;
76196;SDS011;64974;53.144;17.962;2023-05-07T13:48:23;3.10;;;1.95;;
76196;SDS011;64974;53.144;17.962;2023-05-07T13:50:49;4.40;;;2.10;;
76196;SDS011;64974;53.144;17.962;2023-05-07T13:53:14;4.30;;;2.15;;
76196;SDS011;64974;53.144;17.962;2023-05-07T13:55:42;5.90;;;2.42;;
76196;SDS011;64974;53.144;17.962;2023-05-07T13:58:08;3.60;;;1.73;;
76196;SDS011;64974;53.144;17.962;2023-05-07T14:00:33;3.65;;;1.77;;
76196;SDS011;64974;53.144;17.962;2023-05-07T14:02:59;4.35;;;2.08;;
76196;SDS011;64974;53.144;17.962;2023-05-07T14:05:24;5.20;;;3.00;;
76196;SDS011;64974;53.144;17.962;2023-05-07T14:07:50;4.40;;;2.13;;
76196;SDS011;64974;53.144;17.962;2023-05-07T14:10:16;4.93;;;2.10;;
76196;SDS011;64974;53.144;17.962;2023-05-07T14:12:43;4.32;;;2.17;;
76196;SDS011;64974;53.144;17.962;2023-05-07T14:15:09;3.50;;;1.90;;
76196;SDS011;64974;53.144;17.962;2023-05-07T14:17:35;4.65;;;2.30;;
76196;SDS011;64974;53.144;17.962;2023-05-07T14:20:00;3.33;;;1.90;;
76196;SDS011;64974;53.144;17.962;2023-05-07T14:22:26;3.65;;;1.92;;
76196;SDS011;64974;53.144;17.962;2023-05-07T14:24:51;4.95;;;2.20;;
76196;SDS011;64974;53.144;17.962;2023-05-07T14:27:16;3.90;;;2.00;;
76196;SDS011;64974;53.144;17.962;2023-05-07T14:29:42;7.47;;;2.58;;
76196;SDS011;64974;53.144;17.962;2023-05-07T14:32:08;5.05;;;2.70;;
76196;SDS011;64974;53.144;17.962;2023-05-07T14:34:33;3.92;;;2.33;;
76196;SDS011;64974;53.144;17.962;2023-05-07T14:36:59;3.22;;;1.75;;
76196;SDS011;64974;53.144;17.962;2023-05-07T14:39:24;3.70;;;1.75;;
76196;SDS011;64974;53.144;17.962;2023-05-07T14:41:50;4.35;;;1.73;;
76196;SDS011;64974;53.144;17.962;2023-05-07T14:44:15;3.90;;;1.90;;
76196;SDS011;64974;53.144;17.962;2023-05-07T14:46:41;4.03;;;2.05;;
76196;SDS011;64974;53.144;17.962;2023-05-07T14:49:06;3.70;;;2.00;;
76196;SDS011;64974;53.144;17.962;2023-05-07T14:51:33;6.10;;;2.10;;
76196;SDS011;64974;53.144;17.962;2023-05-07T14:53:59;3.70;;;1.70;;
76196;SDS011;64974;53.144;17.962;2023-05-07T14:56:25;4.43;;;2.20;;
76196;SDS011;64974;53.144;17.962;2023-05-07T14:58:50;4.15;;;2.00;;
76196;SDS011;64974;53.144;17.962;2023-05-07T15:01:15;7.80;;;2.40;;
76196;SDS011;64974;53.144;17.962;2023-05-07T15:03:41;4.55;;;2.28;;
76196;SDS011;64974;53.144;17.962;2023-05-07T15:06:06;4.57;;;2.15;;
76196;SDS011;64974;53.144;17.962;2023-05-07T15:08:32;3.47;;;2.00;;
76196;SDS011;64974;53.144;17.962;2023-05-07T15:10:57;3.67;;;2.40;;
76196;SDS011;64974;53.144;17.962;2023-05-07T15:13:22;3.22;;;1.98;;
76196;SDS011;64974;53.144;17.962;2023-05-07T15:15:48;5.30;;;3.00;;
76196;SDS011;64974;53.144;17.962;2023-05-07T15:18:14;4.95;;;2.50;;
76196;SDS011;64974;53.144;17.962;2023-05-07T15:20:40;3.83;;;2.10;;
76196;SDS011;64974;53.144;17.962;2023-05-07T15:23:06;4.85;;;1.88;;